createdAt,value
2022-11-17T00:01:31.716Z,10.13
2022-11-17T00:03:58.703Z,15.73
2022-11-17T00:06:25.619Z,18.27
2022-11-17T00:08:53.630Z,10.73
2022-11-17T00:11:20.325Z,16.25
2022-11-17T00:14:05.560Z,17.52
2022-11-17T00:16:32.231Z,9.57
2022-11-17T00:19:19.725Z,16.75
2022-11-17T00:21:46.661Z,18.80
2022-11-17T00:24:17.123Z,20.35
2022-11-17T00:27:01.938Z,18.27
2022-11-17T00:29:31.988Z,19.38
2022-11-17T00:32:17.350Z,18.48
2022-11-17T00:34:45.463Z,14.20
2022-11-17T00:37:13.442Z,19.58
2022-11-17T00:39:40.503Z,15.27
2022-11-17T00:42:07.155Z,20.35
2022-11-17T00:44:36.908Z,19.67
2022-11-17T00:47:03.560Z,20.17
2022-11-17T00:49:30.250Z,20.40
2022-11-17T00:51:57.767Z,22.98
2022-11-17T00:54:24.500Z,20.63
2022-11-17T00:56:51.523Z,23.48
2022-11-17T00:59:20.116Z,20.50
2022-11-17T01:01:49.340Z,12.30
2022-11-17T01:04:16.533Z,22.05
2022-11-17T01:06:46.179Z,22.73
2022-11-17T01:09:27.229Z,22.75
2022-11-17T01:11:54.401Z,22.75
2022-11-17T01:14:27.176Z,25.42
2022-11-17T01:16:54.596Z,24.17
2022-11-17T01:19:22.825Z,21.70
2022-11-17T01:21:49.730Z,23.30
2022-11-17T01:24:22.314Z,24.50
2022-11-17T01:26:51.840Z,20.25
2022-11-17T01:29:18.806Z,21.45
2022-11-17T01:31:50.676Z,21.00
2022-11-17T01:34:17.834Z,25.30
2022-11-17T01:37:04.123Z,21.02
2022-11-17T01:39:32.092Z,20.30
2022-11-17T01:42:06.403Z,21.85
2022-11-17T01:44:39.092Z,20.60
2022-11-17T01:47:17.197Z,21.13
2022-11-17T01:49:44.974Z,22.98
2022-11-17T01:52:13.075Z,21.88
2022-11-17T01:54:43.354Z,15.45
2022-11-17T01:57:14.987Z,20.58
2022-11-17T01:59:45.836Z,21.98
2022-11-17T02:02:12.536Z,20.20
2022-11-17T02:04:49.767Z,20.65
2022-11-17T02:07:26.349Z,21.27
2022-11-17T02:09:54.492Z,20.17
2022-11-17T02:12:23.538Z,20.33
2022-11-17T02:15:01.939Z,23.85
2022-11-17T02:17:38.077Z,21.88
2022-11-17T02:20:14.651Z,21.90
2022-11-17T02:22:59.360Z,23.45
2022-11-17T02:26:08.244Z,22.42
2022-11-17T02:28:45.616Z,22.00
2022-11-17T02:31:41.664Z,15.07
2022-11-17T02:34:50.387Z,23.35
2022-11-17T02:37:23.296Z,21.20
2022-11-17T02:40:13.530Z,23.95
2022-11-17T02:43:18.833Z,21.10
2022-11-17T02:45:51.351Z,23.10
2022-11-17T02:50:57.449Z,25.48
2022-11-17T02:53:27.882Z,27.17
2022-11-17T02:55:55.391Z,22.83
2022-11-17T02:58:21.992Z,30.25
2022-11-17T03:01:36.239Z,24.48
2022-11-17T03:04:54.498Z,20.83
2022-11-17T03:08:10.038Z,22.40
2022-11-17T03:11:03.849Z,24.13
2022-11-17T03:14:01.915Z,23.15
2022-11-17T03:16:47.547Z,24.45
2022-11-17T03:19:35.391Z,22.52
2022-11-17T03:22:23.018Z,25.10
2022-11-17T03:25:09.718Z,22.65
2022-11-17T03:27:50.177Z,21.70
2022-11-17T03:30:37.321Z,23.75
2022-11-17T03:33:18.786Z,24.42
2022-11-17T03:35:57.145Z,25.07
2022-11-17T03:38:38.490Z,22.38
2022-11-17T03:41:21.255Z,22.58
2022-11-17T03:43:57.734Z,20.80
2022-11-17T03:46:40.539Z,22.48
2022-11-17T03:49:46.699Z,24.83
2022-11-17T03:52:26.149Z,25.80
2022-11-17T03:54:53.636Z,25.00
2022-11-17T03:57:36.430Z,27.52
2022-11-17T04:00:10.124Z,24.75
2022-11-17T04:02:50.129Z,23.05
2022-11-17T04:05:38.725Z,22.70
2022-11-17T04:08:13.733Z,26.05
2022-11-17T04:10:58.992Z,24.20
2022-11-17T04:14:00.519Z,24.42
2022-11-17T04:16:35.627Z,25.80
2022-11-17T04:19:05.460Z,24.23
2022-11-17T04:21:32.242Z,24.20
2022-11-17T04:23:59.489Z,37.17
2022-11-17T04:26:47.540Z,29.75
2022-11-17T04:29:18.215Z,26.70
2022-11-17T04:31:57.171Z,25.17
2022-11-17T04:34:27.273Z,26.88
2022-11-17T04:37:20.927Z,23.50
2022-11-17T04:39:49.033Z,27.20
2022-11-17T04:42:22.778Z,36.15
2022-11-17T04:44:53.300Z,26.42
2022-11-17T04:47:20.370Z,23.85
2022-11-17T04:49:46.969Z,27.63
2022-11-17T04:52:29.999Z,29.25
2022-11-17T04:55:18.706Z,26.42
2022-11-17T04:57:56.307Z,26.58
2022-11-17T05:00:27.752Z,25.02
2022-11-17T05:03:03.003Z,28.27
2022-11-17T05:05:32.822Z,28.85
2022-11-17T05:08:00.848Z,30.52
2022-11-17T05:10:53.775Z,26.70
2022-11-17T05:13:35.043Z,29.00
2022-11-17T05:16:33.373Z,28.63
2022-11-17T05:19:07.104Z,24.40
2022-11-17T05:21:34.183Z,28.73
2022-11-17T05:24:07.038Z,25.85
2022-11-17T05:26:39.807Z,27.50
2022-11-17T05:29:13.304Z,26.08
2022-11-17T05:31:45.731Z,28.75
2022-11-17T05:34:22.515Z,26.08
2022-11-17T05:36:50.060Z,29.73
2022-11-17T05:39:16.913Z,31.27
2022-11-17T05:41:45.503Z,30.23
2022-11-17T05:44:20.830Z,30.00
2022-11-17T05:46:53.042Z,28.80
2022-11-17T05:49:19.716Z,29.42
2022-11-17T05:51:51.315Z,31.27
2022-11-17T05:54:19.447Z,27.83
2022-11-17T05:57:05.009Z,30.65
2022-11-17T06:00:01.761Z,26.38
2022-11-17T06:02:59.695Z,29.55
2022-11-17T06:05:28.057Z,31.35
2022-11-17T06:08:08.034Z,29.80
2022-11-17T06:10:36.440Z,32.40
2022-11-17T06:13:03.290Z,32.47
2022-11-17T06:15:38.463Z,29.90
2022-11-17T06:18:43.457Z,31.42
2022-11-17T06:21:14.030Z,27.50
2022-11-17T06:23:44.729Z,30.58
2022-11-17T06:26:15.688Z,30.08
2022-11-17T06:29:00.592Z,32.67
2022-11-17T06:31:40.124Z,16.33
2022-11-17T06:34:18.944Z,30.02
2022-11-17T06:37:00.548Z,30.27
2022-11-17T06:39:34.670Z,35.05
2022-11-17T06:42:02.605Z,31.85
2022-11-17T06:44:37.486Z,16.65
2022-11-17T06:47:13.958Z,28.65
2022-11-17T06:49:44.260Z,31.35
2022-11-17T06:52:16.343Z,33.95
2022-11-17T06:54:59.187Z,33.03
2022-11-17T06:57:26.270Z,32.35
2022-11-17T06:59:58.912Z,35.92
2022-11-17T07:02:39.167Z,34.75
2022-11-17T07:05:06.684Z,38.67
2022-11-17T07:07:49.748Z,38.55
2022-11-17T07:10:30.995Z,40.67
2022-11-17T07:13:08.725Z,20.95
2022-11-17T07:15:45.357Z,36.67
2022-11-17T07:18:19.057Z,15.10
2022-11-17T07:20:51.993Z,15.95
2022-11-17T07:23:37.633Z,34.67
2022-11-17T07:26:14.504Z,33.30
2022-11-17T07:29:00.393Z,24.98
2022-11-17T07:31:39.150Z,40.30
2022-11-17T07:34:17.361Z,32.65
2022-11-17T07:36:57.766Z,25.90
2022-11-17T07:39:36.593Z,33.50
2022-11-17T07:42:30.511Z,36.65
2022-11-17T07:45:25.095Z,18.25
2022-11-17T07:48:00.474Z,22.27
2022-11-17T07:50:54.098Z,28.67
2022-11-17T07:53:26.537Z,15.75
2022-11-17T07:56:27.954Z,18.23
2022-11-17T07:59:20.005Z,31.27
2022-11-17T08:02:04.067Z,32.15
2022-11-17T08:04:49.760Z,33.55
2022-11-17T08:07:36.522Z,31.60
2022-11-17T08:10:17.920Z,22.35
2022-11-17T08:13:04.592Z,62.40
2022-11-17T08:15:47.403Z,52.15
2022-11-17T08:18:32.327Z,34.08
2022-11-17T08:21:26.638Z,19.10
2022-11-17T08:24:07.260Z,37.15
2022-11-17T08:26:45.591Z,19.13
2022-11-17T08:29:12.739Z,29.27
2022-11-17T08:31:51.340Z,30.45
2022-11-17T08:34:26.313Z,31.63
2022-11-17T08:37:10.940Z,33.90
2022-11-17T08:39:48.838Z,34.05
2022-11-17T08:42:16.886Z,30.38
2022-11-17T08:44:43.635Z,18.30
2022-11-17T08:47:19.880Z,21.27
2022-11-17T08:49:54.632Z,29.55
2022-11-17T08:52:30.809Z,28.67
2022-11-17T08:55:13.352Z,16.80
2022-11-17T08:57:50.799Z,28.98
2022-11-17T09:00:33.798Z,33.00
2022-11-17T09:03:15.429Z,44.10
2022-11-17T09:06:00.842Z,40.05
2022-11-17T09:08:45.744Z,35.22
2022-11-17T09:11:27.457Z,35.65
2022-11-17T09:14:07.236Z,34.35
2022-11-17T09:16:46.899Z,26.52
2022-11-17T09:19:16.541Z,34.95
2022-11-17T09:21:59.326Z,19.85
2022-11-17T09:24:41.060Z,34.55
2022-11-17T09:27:12.486Z,31.85
2022-11-17T09:29:40.220Z,33.03
2022-11-17T09:32:16.943Z,37.70
2022-11-17T09:34:49.861Z,30.40
2022-11-17T09:37:24.568Z,28.30
2022-11-17T09:39:56.361Z,17.13
2022-11-17T09:42:28.834Z,16.90
2022-11-17T09:45:13.954Z,19.58
2022-11-17T09:48:12.397Z,20.23
2022-11-17T09:50:47.293Z,34.42
2022-11-17T09:53:44.686Z,22.02
2022-11-17T09:56:14.292Z,19.60
2022-11-17T09:58:50.271Z,33.67
2022-11-17T10:01:31.139Z,33.55
2022-11-17T10:04:00.247Z,35.60
2022-11-17T10:06:42.633Z,38.30
2022-11-17T10:09:25.998Z,36.80
2022-11-17T10:12:30.910Z,36.78
2022-11-17T10:15:22.922Z,21.08
2022-11-17T10:18:08.414Z,17.45
2022-11-17T10:20:57.603Z,19.98
2022-11-17T10:24:01.746Z,18.02
2022-11-17T10:27:02.142Z,31.60
2022-11-17T10:29:46.961Z,30.40
2022-11-17T10:32:28.757Z,18.02
2022-11-17T10:35:17.963Z,19.40
2022-11-17T10:38:21.982Z,34.05
2022-11-17T10:41:10.338Z,26.67
2022-11-17T10:43:57.222Z,26.33
2022-11-17T10:46:36.708Z,21.83
2022-11-17T10:49:43.351Z,35.85
2022-11-17T10:52:30.606Z,32.10
2022-11-17T10:55:52.345Z,18.88
2022-11-17T10:58:41.089Z,30.77
2022-11-17T11:01:28.446Z,18.55
2022-11-17T11:04:12.329Z,19.10
2022-11-17T11:06:59.389Z,20.63
2022-11-17T11:09:38.755Z,17.48
2022-11-17T11:12:30.360Z,38.95
2022-11-17T11:15:23.282Z,32.13
2022-11-17T11:17:50.896Z,20.92
2022-11-17T11:20:24.533Z,33.22
2022-11-17T11:23:37.200Z,30.85
2022-11-17T11:26:35.688Z,20.85
2022-11-17T11:29:30.932Z,20.52
2022-11-17T11:32:05.259Z,20.83
2022-11-17T11:35:16.019Z,21.35
2022-11-17T11:38:00.170Z,20.55
2022-11-17T11:40:37.235Z,25.25
2022-11-17T11:43:22.091Z,32.08
2022-11-17T11:46:14.325Z,23.65
2022-11-17T11:48:41.964Z,24.52
2022-11-17T11:51:16.381Z,22.15
2022-11-17T11:53:58.714Z,29.27
2022-11-17T11:56:33.077Z,22.10
2022-11-17T11:59:04.927Z,22.38
2022-11-17T12:01:53.856Z,19.65
2022-11-17T12:04:48.290Z,20.10
2022-11-17T12:07:15.928Z,23.92
2022-11-17T12:09:58.494Z,20.50
2022-11-17T12:12:31.980Z,20.92
2022-11-17T12:15:18.778Z,21.35
2022-11-17T12:18:04.144Z,29.48
2022-11-17T12:20:35.931Z,28.70
2022-11-17T12:23:40.031Z,20.80
2022-11-17T12:26:07.557Z,22.10
2022-11-17T12:28:42.668Z,35.97
2022-11-17T12:31:39.685Z,25.33
2022-11-17T12:34:06.365Z,21.55
2022-11-17T12:36:36.146Z,20.42
2022-11-17T12:39:08.263Z,22.38
2022-11-17T12:41:53.451Z,20.50
2022-11-17T12:44:46.971Z,28.70
2022-11-17T12:47:22.221Z,90.13
2022-11-17T12:49:53.410Z,47.28
2022-11-17T12:52:37.269Z,27.13
2022-11-17T12:55:35.953Z,29.55
2022-11-17T12:58:41.578Z,29.52
2022-11-17T13:01:39.442Z,21.88
2022-11-17T13:04:30.891Z,21.63
2022-11-17T13:07:27.166Z,30.92
2022-11-17T13:09:59.976Z,32.40
2022-11-17T13:12:29.298Z,23.20
2022-11-17T13:15:05.141Z,23.20
2022-11-17T13:17:44.221Z,28.48
2022-11-17T13:20:25.102Z,20.55
2022-11-17T13:23:24.150Z,24.70
2022-11-17T13:25:58.588Z,21.23
2022-11-17T13:28:34.891Z,28.60
2022-11-17T13:31:05.226Z,28.83
2022-11-17T13:33:38.446Z,20.25
2022-11-17T13:36:22.720Z,21.88
2022-11-17T13:38:53.641Z,34.10
2022-11-17T13:41:25.100Z,27.15
2022-11-17T13:43:54.928Z,20.73
2022-11-17T13:46:21.903Z,24.73
2022-11-17T13:48:50.360Z,20.38
2022-11-17T13:51:44.782Z,23.42
2022-11-17T13:54:11.859Z,34.13
2022-11-17T13:56:41.951Z,40.78
2022-11-17T13:59:44.726Z,28.08
2022-11-17T14:02:20.360Z,40.80
2022-11-17T14:05:27.706Z,25.73
2022-11-17T14:07:59.706Z,41.30
2022-11-17T14:10:33.079Z,32.42
2022-11-17T14:13:02.438Z,31.00
2022-11-17T14:15:42.236Z,29.40
2022-11-17T14:18:42.089Z,25.63
2022-11-17T14:21:15.832Z,36.72
2022-11-17T14:23:44.069Z,47.50
2022-11-17T14:26:24.819Z,39.78
2022-11-17T14:28:52.417Z,31.33
2022-11-17T14:31:19.657Z,38.05
2022-11-17T14:33:48.202Z,34.85
2022-11-17T14:36:20.734Z,38.88
2022-11-17T14:38:50.246Z,41.65
2022-11-17T14:41:19.806Z,39.90
2022-11-17T14:43:47.073Z,48.83
2022-11-17T14:46:23.282Z,48.53
2022-11-17T14:48:50.380Z,36.63
2022-11-17T14:51:26.453Z,48.50
2022-11-17T14:53:54.265Z,45.22
2022-11-17T14:56:32.603Z,55.60
2022-11-17T14:59:01.764Z,40.90
2022-11-17T15:01:37.189Z,47.65
2022-11-17T15:04:21.099Z,62.47
2022-11-17T15:06:55.310Z,98.75
2022-11-17T15:09:21.985Z,62.17
2022-11-17T15:11:48.909Z,102.82
2022-11-17T15:14:15.877Z,72.78
2022-11-17T15:16:45.747Z,55.65
2022-11-17T15:19:13.504Z,51.60
2022-11-17T15:21:40.287Z,99.35
2022-11-17T15:24:07.062Z,91.85
2022-11-17T15:26:34.323Z,86.85
2022-11-17T15:29:07.092Z,99.22
2022-11-17T15:31:41.965Z,70.97
2022-11-17T15:34:13.299Z,63.47
2022-11-17T15:36:42.223Z,84.35
2022-11-17T15:39:09.000Z,75.15
2022-11-17T15:41:35.551Z,67.45
2022-11-17T15:44:02.215Z,82.07
2022-11-17T15:46:29.567Z,64.05
2022-11-17T15:48:56.402Z,76.45
2022-11-17T15:51:28.724Z,79.10
2022-11-17T15:54:03.128Z,76.28
2022-11-17T15:56:38.930Z,63.83
2022-11-17T15:59:06.301Z,83.32
2022-11-17T16:01:38.635Z,65.50
2022-11-17T16:04:11.717Z,82.10
2022-11-17T16:06:40.348Z,79.38
2022-11-17T16:09:47.534Z,78.63
2022-11-17T16:12:17.000Z,59.00
2022-11-17T16:14:43.656Z,78.72
2022-11-17T16:17:10.450Z,83.88
2022-11-17T16:19:37.118Z,72.03
2022-11-17T16:22:05.302Z,79.70
2022-11-17T16:24:39.531Z,81.95
2022-11-17T16:27:07.477Z,57.65
2022-11-17T16:29:37.124Z,80.30
2022-11-17T16:32:09.096Z,77.40
2022-11-17T16:34:41.107Z,77.03
2022-11-17T16:37:26.722Z,81.00
2022-11-17T16:39:55.431Z,55.03
2022-11-17T16:42:24.392Z,77.90
2022-11-17T16:45:23.253Z,81.10
2022-11-17T16:48:00.331Z,56.28
2022-11-17T16:50:27.133Z,67.70
2022-11-17T16:52:53.994Z,78.10
2022-11-17T16:55:20.696Z,60.30
2022-11-17T16:57:50.113Z,78.90
2022-11-17T17:05:43.766Z,87.38
2022-11-17T17:08:10.530Z,94.05
2022-11-17T17:10:38.515Z,87.53
2022-11-17T17:13:05.675Z,65.50
2022-11-17T17:15:33.332Z,59.88
2022-11-17T17:18:00.016Z,58.92
2022-11-17T17:20:30.035Z,80.28
2022-11-17T17:23:01.805Z,49.40
2022-11-17T17:25:29.803Z,66.32
2022-11-17T17:27:56.557Z,87.93
2022-11-17T17:30:23.281Z,65.72
2022-11-17T17:32:50.079Z,81.03
2022-11-17T17:35:18.356Z,88.38
2022-11-17T17:37:44.949Z,71.57
2022-11-17T17:40:20.077Z,81.82
2022-11-17T17:42:57.761Z,54.80
2022-11-17T17:45:26.524Z,83.82
2022-11-17T17:47:53.300Z,51.45
2022-11-17T17:50:21.607Z,80.50
2022-11-17T17:52:50.101Z,47.75
2022-11-17T17:55:17.649Z,50.05
2022-11-17T17:57:44.783Z,46.80
2022-11-17T18:00:11.846Z,57.42
2022-11-17T18:02:46.415Z,51.00
2022-11-17T18:05:19.441Z,72.50
2022-11-17T18:07:46.139Z,50.28
2022-11-17T18:10:16.242Z,52.50
2022-11-17T18:12:42.953Z,72.53
2022-11-17T18:15:11.739Z,64.82
2022-11-17T18:17:48.521Z,67.53
2022-11-17T18:20:18.455Z,92.68
2022-11-17T18:22:46.369Z,55.70
2022-11-17T18:25:17.828Z,57.55
2022-11-17T18:27:57.513Z,54.63
2022-11-17T18:30:34.463Z,52.72
2022-11-17T18:33:10.752Z,81.03
2022-11-17T18:35:41.648Z,79.43
2022-11-17T18:38:08.445Z,94.22
2022-11-17T18:40:38.939Z,60.67
2022-11-17T18:43:05.647Z,51.78
2022-11-17T18:45:36.853Z,50.08
2022-11-17T18:48:03.707Z,48.30
2022-11-17T18:50:31.073Z,59.28
2022-11-17T18:53:05.699Z,82.00
2022-11-17T18:55:45.176Z,57.33
2022-11-17T18:58:24.217Z,69.30
2022-11-17T19:03:52.014Z,65.10
2022-11-17T19:06:44.599Z,82.63
2022-11-17T19:09:23.179Z,85.78
2022-11-17T19:12:37.652Z,90.97
2022-11-17T19:15:17.970Z,87.68
2022-11-17T19:20:54.404Z,90.03
2022-11-17T19:23:35.960Z,50.33
2022-11-17T19:26:10.203Z,52.50
2022-11-17T19:28:46.888Z,53.60
2022-11-17T19:31:23.890Z,58.33
2022-11-17T19:33:54.689Z,75.25
2022-11-17T19:36:37.716Z,81.18
2022-11-17T19:39:15.638Z,46.00
2022-11-17T19:41:48.263Z,52.03
2022-11-17T19:44:15.145Z,52.30
2022-11-17T19:46:42.766Z,54.15
2022-11-17T19:49:14.290Z,74.80
2022-11-17T19:51:43.049Z,53.20
2022-11-17T19:54:10.285Z,62.58
2022-11-17T19:56:38.463Z,50.22
2022-11-17T19:59:06.942Z,54.38
2022-11-17T20:01:54.390Z,55.85
2022-11-17T20:04:29.981Z,63.47
2022-11-17T20:06:57.139Z,54.00
2022-11-17T20:09:40.348Z,54.13
2022-11-17T20:12:11.537Z,51.55
2022-11-17T20:14:44.983Z,53.65
2022-11-17T20:17:20.858Z,52.45
2022-11-17T20:19:52.498Z,51.00
2022-11-17T20:22:25.017Z,62.22
2022-11-17T20:25:05.216Z,52.40
2022-11-17T20:27:39.096Z,53.00
2022-11-17T20:30:13.773Z,48.53
2022-11-17T20:32:43.710Z,50.03
2022-11-17T20:35:20.231Z,51.80
2022-11-17T20:37:48.569Z,78.00
2022-11-17T20:40:15.688Z,67.63
2022-11-17T20:42:45.426Z,53.88
2022-11-17T20:45:27.526Z,53.17
2022-11-17T20:48:01.216Z,75.57
2022-11-17T20:50:35.830Z,77.68
2022-11-17T20:53:03.068Z,52.60
2022-11-17T20:55:32.444Z,83.65
2022-11-17T20:58:13.739Z,58.72
2022-11-17T21:00:40.984Z,74.18
2022-11-17T21:03:08.537Z,60.67
2022-11-17T21:05:35.295Z,52.58
2022-11-17T21:08:18.921Z,59.58
2022-11-17T21:11:11.832Z,87.15
2022-11-17T21:13:45.518Z,75.47
2022-11-17T21:16:23.272Z,89.03
2022-11-17T21:19:00.512Z,57.47
2022-11-17T21:21:30.869Z,55.25
2022-11-17T21:24:01.699Z,77.95
2022-11-17T21:26:36.734Z,55.65
2022-11-17T21:29:14.800Z,63.15
2022-11-17T21:31:41.600Z,69.57
2022-11-17T21:34:28.237Z,72.93
2022-11-17T21:37:21.673Z,76.13
2022-11-17T21:39:55.376Z,67.43
2022-11-17T21:42:22.789Z,67.30
2022-11-17T21:44:50.660Z,49.85
2022-11-17T21:47:21.864Z,46.58
2022-11-17T21:49:51.832Z,72.22
2022-11-17T21:52:19.112Z,73.57
2022-11-17T21:54:49.108Z,78.32
2022-11-17T21:57:18.402Z,79.93
2022-11-17T21:59:54.408Z,73.90
2022-11-17T22:02:30.407Z,68.28
2022-11-17T22:04:58.613Z,73.55
2022-11-17T22:07:31.859Z,76.43
2022-11-17T22:09:58.881Z,72.40
2022-11-17T22:12:31.338Z,46.42
2022-11-17T22:17:30.463Z,71.45
2022-11-17T22:20:06.680Z,71.50
2022-11-17T22:22:44.744Z,74.93
2022-11-17T22:25:43.006Z,76.85
2022-11-17T22:28:00.279Z,76.43
2022-11-17T22:30:27.432Z,77.93
2022-11-17T22:32:54.200Z,69.28
2022-11-17T22:35:26.152Z,67.10
2022-11-17T22:38:00.266Z,66.38
2022-11-17T22:40:27.614Z,51.28
2022-11-17T22:43:14.901Z,53.65
2022-11-17T22:45:53.191Z,64.10
2022-11-17T22:48:42.604Z,47.65
2022-11-17T22:51:43.226Z,37.63
2022-11-17T22:54:16.748Z,39.03
2022-11-17T22:57:03.239Z,36.90
2022-11-17T22:59:48.024Z,37.22
2022-11-17T23:02:15.897Z,46.17
2022-11-17T23:04:59.528Z,53.40
2022-11-17T23:07:40.343Z,41.13
2022-11-17T23:10:07.401Z,48.55
2022-11-17T23:12:39.107Z,37.97
2022-11-17T23:15:29.463Z,39.38
2022-11-17T23:18:12.698Z,35.92
2022-11-17T23:20:56.128Z,45.50
2022-11-17T23:23:51.871Z,45.55
2022-11-17T23:26:22.912Z,40.92
2022-11-17T23:29:04.827Z,38.85
2022-11-17T23:31:48.314Z,43.95
2022-11-17T23:34:19.449Z,48.15
2022-11-17T23:36:51.531Z,46.13
2022-11-17T23:39:26.758Z,47.97
2022-11-17T23:42:03.899Z,45.28
2022-11-17T23:44:44.263Z,31.65
2022-11-17T23:47:21.081Z,37.00
2022-11-17T23:49:56.830Z,44.63
2022-11-17T23:52:32.185Z,46.65
2022-11-17T23:55:03.737Z,48.10
2022-11-17T23:57:36.603Z,50.22
